Time;durP1;ratioP1;P1;durP2;ratioP2;P2;SDS_P1;SDS_P2;PMS_P1;PMS_P2;Temp;Humidity;BMP_temperature;BMP_pressure;BME280_temperature;BME280_humidity;BME280_pressure;Samples;Min_cycle;Max_cycle;Signal;HPM_P1;HPM_P2
2021/07/26 00:00:40;;;;;;;2.20;2.00;;;23.20;61.40;;;;;;1476340;40;20034;-61
2021/07/26 00:02:01;;;;;;;3.00;1.88;;;23.20;61.40;;;;;;1474864;40;20026;-61
2021/07/26 00:03:21;;;;;;;2.72;2.03;;;23.20;61.40;;;;;;1474103;40;20045;-62
2021/07/26 00:04:42;;;;;;;2.05;1.90;;;23.20;61.50;;;;;;1475443;40;20458;-61
2021/07/26 00:06:03;;;;;;;2.78;2.03;;;23.20;61.60;;;;;;1476701;40;20047;-61
2021/07/26 00:07:24;;;;;;;2.38;1.50;;;23.10;61.60;;;;;;1477087;40;20313;-62
2021/07/26 00:08:45;;;;;;;2.65;1.90;;;23.10;61.70;;;;;;1476013;40;20047;-61
2021/07/26 00:10:07;;;;;;;1.70;1.50;;;23.10;61.80;;;;;;1476205;40;20057;-61
2021/07/26 00:11:28;;;;;;;2.00;1.80;;;23.10;61.80;;;;;;1475502;40;20037;-61
2021/07/26 00:12:48;;;;;;;4.80;2.05;;;23.10;61.90;;;;;;1473946;40;20048;-61
2021/07/26 00:14:09;;;;;;;3.70;1.90;;;23.10;62.10;;;;;;1470350;40;20018;-61
2021/07/26 00:15:30;;;;;;;2.75;2.17;;;23.10;62.10;;;;;;1475038;40;20025;-61
2021/07/26 00:16:51;;;;;;;3.47;2.05;;;23.10;62.30;;;;;;1474521;40;20136;-62
2021/07/26 00:18:12;;;;;;;3.05;2.03;;;23.10;62.30;;;;;;1474611;40;20130;-61
2021/07/26 00:19:33;;;;;;;3.17;1.77;;;23.00;62.40;;;;;;1475543;40;20041;-62
2021/07/26 00:20:58;;;;;;;3.55;2.10;;;23.00;62.40;;;;;;1478097;40;20053;-62
2021/07/26 00:22:19;;;;;;;3.17;1.95;;;23.00;62.60;;;;;;1475755;40;20032;-61
2021/07/26 00:23:40;;;;;;;3.20;2.03;;;23.00;62.60;;;;;;1476694;40;20033;-62
2021/07/26 00:25:01;;;;;;;2.17;1.98;;;23.00;62.60;;;;;;1476495;40;20044;-62
2021/07/26 00:26:24;;;;;;;1.73;1.50;;;23.00;62.70;;;;;;1475997;40;20026;-61
2021/07/26 00:27:45;;;;;;;3.55;2.08;;;22.90;62.70;;;;;;1477761;40;20038;-62
2021/07/26 00:29:06;;;;;;;4.43;2.10;;;22.90;62.80;;;;;;1475584;40;20506;-62
2021/07/26 00:30:27;;;;;;;2.97;2.22;;;22.90;62.90;;;;;;1475841;40;20076;-62
2021/07/26 00:31:48;;;;;;;2.67;2.08;;;22.90;63.00;;;;;;1478046;40;20041;-62
2021/07/26 00:35:18;;;;;;;2.95;2.00;;;22.90;63.70;;;;;;1475023;40;20077;-61
2021/07/26 00:36:44;;;;;;;1.85;1.67;;;22.90;62.80;;;;;;1473661;40;20310;-61
2021/07/26 00:38:05;;;;;;;2.60;2.15;;;22.90;63.30;;;;;;1474503;40;20050;-62
2021/07/26 00:39:28;;;;;;;2.63;1.80;;;22.80;62.90;;;;;;1474470;40;20119;-61
2021/07/26 00:40:51;;;;;;;1.75;1.55;;;22.90;63.20;;;;;;1476913;40;20046;-61
2021/07/26 00:42:12;;;;;;;2.85;1.80;;;22.80;63.80;;;;;;1474257;40;20030;-61
2021/07/26 00:43:33;;;;;;;2.83;1.95;;;22.80;63.20;;;;;;1474792;40;20323;-61
2021/07/26 00:44:54;;;;;;;3.15;1.88;;;22.80;63.40;;;;;;1477102;40;20029;-61
2021/07/26 00:46:15;;;;;;;2.67;2.00;;;22.80;63.40;;;;;;1475981;40;20041;-61
2021/07/26 00:47:36;;;;;;;3.35;1.95;;;22.80;63.60;;;;;;1478406;40;20029;-61
2021/07/26 00:48:58;;;;;;;4.07;2.35;;;22.80;63.60;;;;;;1476087;40;20111;-62
2021/07/26 00:50:19;;;;;;;2.75;2.10;;;22.80;63.70;;;;;;1476195;40;20191;-61
2021/07/26 00:51:45;;;;;;;3.47;1.98;;;22.80;63.80;;;;;;1475719;40;20363;-62
2021/07/26 00:53:06;;;;;;;3.17;2.05;;;22.80;63.90;;;;;;1477721;40;20287;-62
2021/07/26 00:54:35;;;;;;;5.03;2.03;;;22.80;63.80;;;;;;1478482;40;20552;-61
2021/07/26 00:55:56;;;;;;;1.92;1.52;;;22.80;64.30;;;;;;1474446;40;20029;-62
2021/07/26 00:57:19;;;;;;;1.75;1.60;;;22.80;63.80;;;;;;1474824;40;20042;-61
2021/07/26 00:58:41;;;;;;;2.33;2.00;;;22.80;63.90;;;;;;1476036;40;20026;-61
2021/07/26 01:00:03;;;;;;;2.22;1.60;;;22.80;63.90;;;;;;1477331;40;20030;-61
2021/07/26 01:01:24;;;;;;;2.42;1.75;;;22.70;63.90;;;;;;1474310;40;20030;-61
2021/07/26 01:02:45;;;;;;;2.80;2.22;;;22.70;63.80;;;;;;1477298;40;20036;-61
2021/07/26 01:04:07;;;;;;;3.15;1.83;;;22.70;64.00;;;;;;1477267;40;20080;-62
2021/07/26 01:05:27;;;;;;;2.30;2.00;;;22.70;63.90;;;;;;1475556;40;20034;-61
2021/07/26 01:06:49;;;;;;;2.30;2.10;;;22.70;63.90;;;;;;1477653;40;20037;-61
2021/07/26 01:08:10;;;;;;;4.18;2.33;;;22.70;64.00;;;;;;1476078;40;20266;-61
2021/07/26 01:09:30;;;;;;;1.75;1.65;;;22.70;64.00;;;;;;1475969;40;20140;-61
2021/07/26 01:10:52;;;;;;;2.55;1.90;;;22.70;64.00;;;;;;1476794;40;20040;-62
2021/07/26 01:12:13;;;;;;;3.50;2.10;;;22.70;64.00;;;;;;1475191;40;20022;-62
2021/07/26 01:13:35;;;;;;;2.78;2.13;;;22.60;64.00;;;;;;1476496;40;20025;-61
2021/07/26 01:14:57;;;;;;;2.45;2.03;;;22.70;64.20;;;;;;1477563;40;20049;-61
2021/07/26 01:16:18;;;;;;;2.22;1.90;;;22.70;64.20;;;;;;1474737;40;20034;-61
2021/07/26 01:18:12;;;;;;;3.35;1.88;;;22.70;64.10;;;;;;1476344;40;20048;-61
2021/07/26 01:19:33;;;;;;;3.03;1.80;;;22.70;64.60;;;;;;1475236;40;20044;-61
2021/07/26 01:20:55;;;;;;;3.38;2.00;;;22.70;64.00;;;;;;1477004;40;20037;-61
2021/07/26 01:22:15;;;;;;;2.65;1.90;;;22.70;64.20;;;;;;1469800;40;20018;-61
2021/07/26 01:23:39;;;;;;;4.05;1.88;;;22.70;64.10;;;;;;1475386;40;20031;-61
2021/07/26 01:25:01;;;;;;;1.70;1.60;;;22.60;64.10;;;;;;1476194;40;20046;-62
2021/07/26 01:26:23;;;;;;;3.22;1.98;;;22.60;64.00;;;;;;1477946;40;20045;-61
2021/07/26 01:27:44;;;;;;;2.30;2.10;;;22.60;64.20;;;;;;1476317;40;20354;-61
2021/07/26 01:29:07;;;;;;;2.13;1.92;;;22.60;64.20;;;;;;1475292;40;20033;-60
2021/07/26 01:30:28;;;;;;;3.42;1.90;;;22.60;64.30;;;;;;1476083;40;20062;-61
2021/07/26 01:31:49;;;;;;;2.72;2.38;;;22.60;64.30;;;;;;1476439;40;20033;-61
2021/07/26 01:33:11;;;;;;;1.95;1.77;;;22.60;64.30;;;;;;1476200;40;20029;-61
2021/07/26 01:34:34;;;;;;;2.30;2.00;;;22.50;64.30;;;;;;1475009;40;20065;-61
2021/07/26 01:35:55;;;;;;;3.40;2.00;;;22.50;64.40;;;;;;1475883;40;20085;-61
2021/07/26 01:37:16;;;;;;;5.07;1.88;;;22.50;64.30;;;;;;1476782;40;20041;-61
2021/07/26 01:38:37;;;;;;;2.20;1.73;;;22.50;64.30;;;;;;1473687;40;20037;-61
2021/07/26 01:39:58;;;;;;;2.80;2.05;;;22.50;64.30;;;;;;1476896;40;20032;-62
2021/07/26 01:41:25;;;;;;;4.93;2.25;;;22.50;64.30;;;;;;1475771;40;20029;-61
2021/07/26 01:42:46;;;;;;;2.25;1.95;;;22.50;64.30;;;;;;1473995;40;20091;-61
2021/07/26 01:44:07;;;;;;;2.85;2.30;;;22.50;64.30;;;;;;1476029;40;20033;-61
2021/07/26 01:45:31;;;;;;;4.47;2.10;;;22.40;64.20;;;;;;1475981;40;20271;-61
2021/07/26 01:47:05;;;;;;;2.53;1.90;;;22.50;64.30;;;;;;1476592;40;20032;-61
2021/07/26 01:48:55;;;;;;;3.30;2.40;;;22.40;64.50;;;;;;1475464;40;20033;-61
2021/07/26 01:50:19;;;;;;;2.75;2.05;;;22.40;64.60;;;;;;1474828;40;20037;-61
2021/07/26 01:51:42;;;;;;;3.13;2.03;;;22.40;64.20;;;;;;1478002;40;20119;-61
2021/07/26 01:53:03;;;;;;;4.40;2.10;;;22.40;64.80;;;;;;1474890;40;20080;-61
2021/07/26 01:54:26;;;;;;;2.30;2.10;;;22.40;64.20;;;;;;1474450;40;20034;-61
2021/07/26 01:55:46;;;;;;;2.15;1.95;;;22.40;64.40;;;;;;1477302;40;20037;-61
2021/07/26 01:57:08;;;;;;;3.78;2.10;;;22.40;64.40;;;;;;1477198;40;20028;-61
2021/07/26 01:58:29;;;;;;;2.30;2.00;;;22.30;64.40;;;;;;1476113;40;20044;-61
2021/07/26 01:59:51;;;;;;;2.67;2.00;;;22.40;64.50;;;;;;1474567;40;20381;-61
2021/07/26 02:01:11;;;;;;;3.20;2.08;;;22.30;64.50;;;;;;1475133;40;20095;-61
2021/07/26 02:02:32;;;;;;;3.83;1.98;;;22.30;64.60;;;;;;1476188;40;20029;-61
2021/07/26 02:03:55;;;;;;;3.65;2.10;;;22.30;64.70;;;;;;1474305;40;20029;-61
2021/07/26 02:05:16;;;;;;;4.32;2.05;;;22.30;64.80;;;;;;1475495;40;20026;-61
2021/07/26 02:06:37;;;;;;;2.30;2.00;;;22.30;64.70;;;;;;1477347;40;20375;-61
2021/07/26 02:07:58;;;;;;;2.15;1.75;;;22.30;64.80;;;;;;1471056;40;20030;-61
2021/07/26 02:09:19;;;;;;;2.20;1.83;;;22.30;64.90;;;;;;1474362;40;20073;-61
2021/07/26 02:10:40;;;;;;;5.70;2.08;;;22.30;64.90;;;;;;1476443;40;20657;-61
2021/07/26 02:12:02;;;;;;;2.28;1.77;;;22.30;64.90;;;;;;1475206;40;20333;-61
2021/07/26 02:13:23;;;;;;;2.25;1.90;;;22.30;65.00;;;;;;1473996;40;20070;-61
2021/07/26 02:14:44;;;;;;;4.30;1.90;;;22.20;65.00;;;;;;1475126;40;20025;-61
2021/07/26 02:16:10;;;;;;;1.90;1.80;;;22.20;65.00;;;;;;1475092;40;20042;-61
2021/07/26 02:17:31;;;;;;;3.28;1.88;;;22.20;65.20;;;;;;1478185;40;20032;-61
2021/07/26 02:18:52;;;;;;;1.75;1.65;;;22.20;65.00;;;;;;1476973;40;20041;-61
2021/07/26 02:20:13;;;;;;;2.42;2.15;;;22.20;65.10;;;;;;1476687;40;20060;-61
2021/07/26 02:21:34;;;;;;;2.65;1.80;;;22.20;65.10;;;;;;1477413;40;20037;-61
2021/07/26 02:22:55;;;;;;;1.90;1.77;;;22.20;65.20;;;;;;1468943;40;20034;-61
2021/07/26 02:24:16;;;;;;;3.97;1.75;;;22.10;65.20;;;;;;1473959;40;20041;-61
2021/07/26 02:25:37;;;;;;;3.10;2.50;;;22.20;65.20;;;;;;1474518;40;20029;-61
2021/07/26 02:26:58;;;;;;;3.22;2.15;;;22.20;65.30;;;;;;1476082;40;20030;-61
2021/07/26 02:28:19;;;;;;;2.53;1.95;;;22.20;65.40;;;;;;1478195;40;20033;-61
2021/07/26 02:29:40;;;;;;;2.10;1.90;;;22.20;65.40;;;;;;1477510;40;20040;-61
2021/07/26 02:31:00;;;;;;;2.33;2.10;;;22.20;65.40;;;;;;1471421;40;20015;-61
2021/07/26 02:32:21;;;;;;;2.28;2.03;;;22.20;65.40;;;;;;1472595;40;20357;-61
2021/07/26 02:33:42;;;;;;;2.42;2.08;;;22.20;65.50;;;;;;1472805;40;20029;-61
2021/07/26 02:35:03;;;;;;;2.30;2.10;;;22.20;65.60;;;;;;1473051;40;20032;-61
2021/07/26 02:36:24;;;;;;;2.90;2.00;;;22.20;65.50;;;;;;1473730;40;20026;-61
2021/07/26 02:37:45;;;;;;;3.08;2.17;;;22.10;65.50;;;;;;1477190;40;20078;-61
2021/07/26 02:39:06;;;;;;;2.28;2.08;;;22.20;65.50;;;;;;1476378;40;20022;-61
2021/07/26 02:40:28;;;;;;;3.40;2.15;;;22.10;65.50;;;;;;1475510;40;20069;-61
2021/07/26 02:41:48;;;;;;;2.50;2.30;;;22.10;65.50;;;;;;1475170;40;20038;-61
2021/07/26 02:43:09;;;;;;;4.00;2.35;;;22.10;65.50;;;;;;1477788;40;20025;-61
2021/07/26 02:44:30;;;;;;;3.53;1.80;;;22.10;65.50;;;;;;1476176;40;20349;-61
2021/07/26 02:45:51;;;;;;;2.83;2.13;;;22.10;65.50;;;;;;1476116;40;20036;-61
2021/07/26 02:47:12;;;;;;;2.20;2.00;;;22.10;65.50;;;;;;1476659;40;20029;-61
2021/07/26 02:48:33;;;;;;;2.20;2.00;;;22.10;65.80;;;;;;1470972;40;20078;-61
2021/07/26 02:49:54;;;;;;;2.22;2.00;;;22.10;65.60;;;;;;1472915;40;20032;-61
2021/07/26 02:51:15;;;;;;;2.30;2.10;;;22.10;65.50;;;;;;1475561;40;20050;-61
2021/07/26 02:52:36;;;;;;;4.22;2.15;;;22.10;65.60;;;;;;1476431;40;20033;-60
2021/07/26 02:53:57;;;;;;;1.90;1.77;;;22.00;65.60;;;;;;1474960;40;20364;-61
2021/07/26 02:55:18;;;;;;;2.22;2.00;;;22.10;65.60;;;;;;1474962;40;20111;-61
2021/07/26 02:56:41;;;;;;;2.20;2.00;;;22.10;65.70;;;;;;1475768;40;20037;-61
2021/07/26 02:58:02;;;;;;;2.20;1.92;;;22.10;65.70;;;;;;1476072;40;20024;-61
2021/07/26 02:59:23;;;;;;;2.40;2.20;;;22.10;65.70;;;;;;1476042;40;20033;-61
2021/07/26 03:00:48;;;;;;;2.13;1.92;;;22.10;65.70;;;;;;1476769;40;20044;-61
2021/07/26 03:02:08;;;;;;;2.72;2.20;;;22.00;65.80;;;;;;1474245;40;20361;-61
2021/07/26 03:03:30;;;;;;;2.28;2.05;;;22.10;65.70;;;;;;1475162;40;20061;-61
2021/07/26 03:04:50;;;;;;;2.45;1.67;;;22.00;65.70;;;;;;1473958;40;20073;-60
2021/07/26 03:06:16;;;;;;;2.45;2.10;;;22.00;65.70;;;;;;1473710;40;20053;-61
2021/07/26 03:07:37;;;;;;;2.42;2.17;;;22.00;65.90;;;;;;1475097;40;20033;-61
2021/07/26 03:08:58;;;;;;;2.60;1.90;;;22.00;65.60;;;;;;1476560;40;20026;-61
2021/07/26 03:10:19;;;;;;;3.45;1.98;;;22.00;65.70;;;;;;1475730;40;20026;-60
2021/07/26 03:11:40;;;;;;;2.40;1.73;;;22.00;65.70;;;;;;1476014;40;20029;-61
2021/07/26 03:13:01;;;;;;;1.83;1.73;;;22.00;65.70;;;;;;1476565;40;20044;-61
2021/07/26 03:14:21;;;;;;;1.85;1.70;;;22.00;65.70;;;;;;1474847;40;20282;-60
2021/07/26 03:15:42;;;;;;;2.20;2.00;;;22.00;65.70;;;;;;1476840;40;20366;-61
2021/07/26 03:17:04;;;;;;;2.70;1.83;;;22.00;65.80;;;;;;1475414;40;20037;-61
2021/07/26 03:18:25;;;;;;;2.20;1.92;;;22.00;65.90;;;;;;1475647;40;20029;-60
2021/07/26 03:19:46;;;;;;;2.22;2.00;;;22.00;65.80;;;;;;1476695;40;20032;-61
2021/07/26 03:21:07;;;;;;;2.97;2.00;;;22.00;65.90;;;;;;1474489;40;20267;-61
2021/07/26 03:22:52;;;;;;;2.33;2.13;;;22.00;65.90;;;;;;1475239;40;20635;-61
2021/07/26 03:24:13;;;;;;;2.95;2.13;;;22.00;66.30;;;;;;1474989;40;20123;-61
2021/07/26 03:25:40;;;;;;;1.88;1.77;;;22.00;65.80;;;;;;1477540;40;20143;-61
2021/07/26 03:27:01;;;;;;;3.53;2.08;;;22.00;65.90;;;;;;1476855;40;20030;-61
2021/07/26 03:28:22;;;;;;;1.90;1.80;;;22.00;65.80;;;;;;1476545;40;20065;-61
2021/07/26 03:29:42;;;;;;;2.35;2.15;;;22.00;65.80;;;;;;1475659;40;20036;-61
2021/07/26 03:31:04;;;;;;;3.35;2.08;;;22.00;65.90;;;;;;1475818;40;20390;-61
2021/07/26 03:32:24;;;;;;;2.83;2.20;;;22.00;66.00;;;;;;1475387;40;20037;-61
2021/07/26 03:33:45;;;;;;;2.22;2.03;;;22.00;66.00;;;;;;1476301;40;20100;-61
2021/07/26 03:35:07;;;;;;;1.90;1.80;;;22.00;66.00;;;;;;1476346;40;20021;-61
2021/07/26 03:36:27;;;;;;;2.50;2.20;;;22.00;66.10;;;;;;1476147;40;20029;-61
2021/07/26 03:37:49;;;;;;;3.28;1.70;;;22.00;66.10;;;;;;1475091;40;20054;-61
2021/07/26 03:39:10;;;;;;;2.60;2.10;;;22.00;66.20;;;;;;1473719;40;20062;-61
2021/07/26 03:40:32;;;;;;;1.90;1.70;;;22.00;66.20;;;;;;1476047;40;20229;-60
2021/07/26 03:41:59;;;;;;;2.40;1.92;;;22.00;66.30;;;;;;1477732;40;20028;-61
2021/07/26 03:43:20;;;;;;;2.13;1.92;;;22.00;66.50;;;;;;1474994;40;20519;-61
2021/07/26 03:44:40;;;;;;;3.78;1.85;;;22.00;66.30;;;;;;1476466;40;20437;-61
2021/07/26 03:46:01;;;;;;;2.25;1.80;;;22.00;66.30;;;;;;1476089;40;20124;-61
2021/07/26 03:47:22;;;;;;;3.10;1.88;;;22.00;66.30;;;;;;1474617;40;20303;-61
2021/07/26 03:48:43;;;;;;;2.75;2.10;;;22.00;66.40;;;;;;1474803;40;20038;-60
2021/07/26 03:50:05;;;;;;;1.80;1.70;;;22.00;66.40;;;;;;1474642;40;20029;-60
2021/07/26 03:51:26;;;;;;;1.85;1.75;;;22.00;66.50;;;;;;1476835;40;20045;-61
2021/07/26 03:52:49;;;;;;;3.20;2.30;;;22.00;66.60;;;;;;1474035;40;20033;-61
2021/07/26 03:54:10;;;;;;;2.53;1.92;;;22.00;66.70;;;;;;1474236;40;20033;-61
2021/07/26 03:55:33;;;;;;;2.90;2.05;;;22.10;66.60;;;;;;1474488;40;20034;-60
2021/07/26 03:56:57;;;;;;;2.40;2.15;;;22.10;66.80;;;;;;1476257;40;20033;-60
2021/07/26 03:58:18;;;;;;;4.43;2.13;;;22.10;66.80;;;;;;1474070;40;20022;-60
2021/07/26 03:59:39;;;;;;;3.47;2.13;;;22.10;66.70;;;;;;1475118;40;20030;-60
2021/07/26 04:01:00;;;;;;;2.28;2.00;;;22.10;66.60;;;;;;1474530;40;20029;-60
2021/07/26 04:02:21;;;;;;;2.67;1.92;;;22.10;66.60;;;;;;1474164;40;20032;-60
2021/07/26 04:03:41;;;;;;;2.20;1.75;;;22.10;66.60;;;;;;1473892;40;20033;-60
2021/07/26 04:05:04;;;;;;;2.47;2.08;;;22.10;66.60;;;;;;1475179;40;20030;-60
2021/07/26 04:06:25;;;;;;;3.28;1.88;;;22.10;66.50;;;;;;1475131;40;20029;-60
2021/07/26 04:07:48;;;;;;;3.22;1.98;;;22.10;66.50;;;;;;1480541;40;20033;-60
2021/07/26 04:09:09;;;;;;;2.97;2.47;;;22.10;66.50;;;;;;1475993;40;20026;-60
2021/07/26 04:10:30;;;;;;;1.92;1.65;;;22.10;66.60;;;;;;1475205;40;20029;-60
2021/07/26 04:12:17;;;;;;;3.22;2.30;;;22.10;66.70;;;;;;1475829;40;20061;-60
2021/07/26 04:13:34;;;;;;;2.20;1.90;;;22.10;66.60;;;;;;1474488;40;20021;-60
2021/07/26 04:14:55;;;;;;;2.83;2.17;;;22.10;66.50;;;;;;1474658;40;20168;-59
2021/07/26 04:16:16;;;;;;;2.25;2.05;;;22.20;66.50;;;;;;1475691;40;20135;-60
2021/07/26 04:17:37;;;;;;;3.55;2.17;;;22.20;66.50;;;;;;1477641;40;20087;-60
2021/07/26 04:19:00;;;;;;;3.38;2.25;;;22.20;67.20;;;;;;1473644;40;20037;-60
2021/07/26 04:20:21;;;;;;;2.53;2.10;;;22.20;66.50;;;;;;1475432;40;20771;-59
2021/07/26 04:21:43;;;;;;;3.10;2.05;;;22.20;66.40;;;;;;1475761;40;20143;-60
2021/07/26 04:23:04;;;;;;;2.13;1.90;;;22.20;66.40;;;;;;1474796;40;20075;-60
2021/07/26 04:24:25;;;;;;;2.10;1.90;;;22.20;66.40;;;;;;1475000;40;20029;-61
2021/07/26 04:25:48;;;;;;;2.55;2.30;;;22.20;66.40;;;;;;1474029;40;20021;-61
2021/07/26 04:27:09;;;;;;;2.65;2.20;;;22.20;66.50;;;;;;1476446;40;20031;-61
2021/07/26 04:28:30;;;;;;;5.65;2.50;;;22.20;66.50;;;;;;1475312;40;20536;-61
2021/07/26 04:29:51;;;;;;;2.65;1.90;;;22.20;66.50;;;;;;1475391;40;20044;-61
2021/07/26 04:31:12;;;;;;;2.90;1.88;;;22.20;66.50;;;;;;1475050;40;20127;-61
2021/07/26 04:32:47;;;;;;;3.33;1.95;;;22.20;66.50;;;;;;1476055;40;20350;-61
2021/07/26 04:34:08;;;;;;;2.20;2.00;;;22.20;66.70;;;;;;1472717;40;20354;-61
2021/07/26 04:35:29;;;;;;;3.13;2.10;;;22.20;66.40;;;;;;1474330;40;20040;-61
2021/07/26 04:36:50;;;;;;;3.40;2.28;;;22.20;66.40;;;;;;1474536;40;20034;-61
2021/07/26 04:38:10;;;;;;;1.75;1.65;;;22.20;66.40;;;;;;1471637;40;20295;-61
2021/07/26 04:39:31;;;;;;;2.50;2.30;;;22.20;66.30;;;;;;1475007;40;20101;-61
2021/07/26 04:40:52;;;;;;;2.50;2.00;;;22.20;66.30;;;;;;1474840;40;20037;-61
2021/07/26 04:42:13;;;;;;;3.85;2.70;;;22.20;66.40;;;;;;1475864;40;20029;-61
2021/07/26 04:43:35;;;;;;;2.25;1.92;;;22.20;66.40;;;;;;1475775;40;20073;-61
2021/07/26 04:44:56;;;;;;;3.60;2.28;;;22.20;66.40;;;;;;1476360;40;20021;-61
2021/07/26 04:46:17;;;;;;;2.75;2.08;;;22.20;66.40;;;;;;1475992;40;20093;-61
2021/07/26 04:47:38;;;;;;;8.32;2.92;;;22.20;66.40;;;;;;1475022;40;20451;-61
2021/07/26 04:48:59;;;;;;;2.35;2.15;;;22.10;66.30;;;;;;1474310;40;20069;-61
2021/07/26 04:50:20;;;;;;;1.92;1.83;;;22.10;66.30;;;;;;1473433;40;20095;-61
2021/07/26 04:51:41;;;;;;;3.85;2.00;;;22.10;66.30;;;;;;1476891;40;20054;-62
2021/07/26 04:53:02;;;;;;;2.63;2.40;;;22.10;66.30;;;;;;1473816;40;20033;-61
2021/07/26 04:54:23;;;;;;;3.88;2.03;;;22.10;66.30;;;;;;1475301;40;20564;-61
2021/07/26 04:55:44;;;;;;;2.40;2.20;;;22.10;66.40;;;;;;1474579;40;20043;-61
2021/07/26 04:57:04;;;;;;;2.40;1.95;;;22.10;66.40;;;;;;1471439;40;20096;-61
2021/07/26 04:58:26;;;;;;;2.65;1.85;;;22.10;66.40;;;;;;1473336;40;20040;-62
2021/07/26 04:59:46;;;;;;;2.65;2.10;;;22.10;66.40;;;;;;1478461;40;20057;-61
2021/07/26 05:01:07;;;;;;;2.38;2.17;;;22.10;66.40;;;;;;1477339;40;20022;-61
2021/07/26 05:02:28;;;;;;;2.08;1.88;;;22.10;66.50;;;;;;1475777;40;20361;-62
2021/07/26 05:03:49;;;;;;;2.28;1.80;;;22.10;66.40;;;;;;1477119;40;20429;-61
2021/07/26 05:05:10;;;;;;;3.70;1.77;;;22.10;66.40;;;;;;1474806;40;20083;-61
2021/07/26 05:06:31;;;;;;;2.28;2.08;;;22.10;66.40;;;;;;1470749;40;20030;-61
2021/07/26 05:07:52;;;;;;;2.28;2.08;;;22.10;66.50;;;;;;1473692;40;20041;-61
2021/07/26 05:09:13;;;;;;;2.72;2.03;;;22.10;66.40;;;;;;1476083;40;20033;-61
2021/07/26 05:10:35;;;;;;;2.15;2.03;;;22.10;66.40;;;;;;1475106;40;20025;-61
2021/07/26 05:12:01;;;;;;;3.72;2.22;;;22.10;66.50;;;;;;1475307;40;20053;-62
2021/07/26 05:13:22;;;;;;;2.38;2.00;;;22.10;67.40;;;;;;1474760;40;20081;-61
2021/07/26 05:14:47;;;;;;;4.13;2.08;;;22.10;66.60;;;;;;1474169;40;20349;-61
2021/07/26 05:16:08;;;;;;;1.83;1.70;;;22.10;66.70;;;;;;1474637;40;20266;-61
2021/07/26 05:17:29;;;;;;;2.05;1.92;;;22.10;66.70;;;;;;1477289;40;20041;-61
2021/07/26 05:18:54;;;;;;;3.80;2.38;;;22.10;66.80;;;;;;1475834;40;20450;-61
2021/07/26 05:20:15;;;;;;;2.03;1.75;;;22.10;66.80;;;;;;1475962;40;20139;-61
2021/07/26 05:21:35;;;;;;;1.75;1.65;;;22.20;67.00;;;;;;1475126;40;20458;-61
2021/07/26 05:22:56;;;;;;;3.13;1.90;;;22.20;67.70;;;;;;1475585;40;20115;-61
2021/07/26 05:24:17;;;;;;;2.20;2.03;;;22.20;67.00;;;;;;1474617;40;20030;-61
2021/07/26 05:25:43;;;;;;;2.67;1.80;;;22.20;67.00;;;;;;1476176;40;20040;-61
2021/07/26 05:27:07;;;;;;;2.25;2.00;;;22.20;67.00;;;;;;1477560;40;20065;-61
2021/07/26 05:28:28;;;;;;;1.75;1.65;;;22.30;67.00;;;;;;1473975;40;20724;-61
2021/07/26 05:29:51;;;;;;;3.45;2.10;;;22.30;66.90;;;;;;1474897;40;20448;-61
2021/07/26 05:31:12;;;;;;;2.10;1.90;;;22.30;66.90;;;;;;1477236;40;20029;-61
2021/07/26 05:32:33;;;;;;;1.98;1.88;;;22.30;66.80;;;;;;1475821;40;20126;-61
2021/07/26 05:33:54;;;;;;;3.08;2.20;;;22.30;66.80;;;;;;1474718;40;20310;-61
2021/07/26 05:35:14;;;;;;;2.85;2.10;;;22.30;66.70;;;;;;1475578;40;20042;-61
2021/07/26 05:36:35;;;;;;;2.40;2.08;;;22.40;66.70;;;;;;1475182;40;20048;-61
2021/07/26 05:37:56;;;;;;;1.73;1.63;;;22.30;66.70;;;;;;1476224;40;20065;-61
2021/07/26 05:39:17;;;;;;;3.20;2.08;;;22.40;66.70;;;;;;1475848;40;20033;-61
2021/07/26 05:40:40;;;;;;;3.28;2.10;;;22.40;66.70;;;;;;1475579;40;20051;-61
2021/07/26 05:42:01;;;;;;;2.33;2.13;;;22.40;66.60;;;;;;1474271;40;20026;-61
2021/07/26 05:43:22;;;;;;;2.05;1.83;;;22.40;66.50;;;;;;1476683;40;20357;-61
2021/07/26 05:44:44;;;;;;;1.92;1.80;;;22.40;66.50;;;;;;1476635;40;20377;-62
2021/07/26 05:46:05;;;;;;;1.70;1.60;;;22.40;66.50;;;;;;1474404;40;20021;-61
2021/07/26 05:47:26;;;;;;;1.88;1.77;;;22.40;66.50;;;;;;1476046;40;20040;-61
2021/07/26 05:48:46;;;;;;;3.78;2.22;;;22.50;66.50;;;;;;1474709;40;20077;-61
2021/07/26 05:50:08;;;;;;;2.47;2.08;;;22.40;66.40;;;;;;1474914;40;20081;-62
2021/07/26 05:51:29;;;;;;;2.85;2.00;;;22.50;66.40;;;;;;1474647;40;20021;-61
2021/07/26 05:52:50;;;;;;;2.33;2.05;;;22.50;66.40;;;;;;1475930;40;20040;-61
2021/07/26 05:54:10;;;;;;;2.67;2.30;;;22.50;66.40;;;;;;1474665;40;20052;-61
2021/07/26 05:55:32;;;;;;;2.75;2.25;;;22.50;66.30;;;;;;1475329;40;20026;-61
2021/07/26 05:56:53;;;;;;;3.35;1.85;;;22.50;66.30;;;;;;1475227;40;20052;-61
2021/07/26 05:58:14;;;;;;;2.15;1.95;;;22.50;66.30;;;;;;1475512;40;20022;-62
2021/07/26 05:59:35;;;;;;;5.57;2.40;;;22.50;66.30;;;;;;1475631;40;20420;-61
2021/07/26 06:01:10;;;;;;;2.63;1.80;;;22.50;66.90;;;;;;1469916;40;20078;-61
2021/07/26 06:02:31;;;;;;;2.30;2.10;;;22.50;66.20;;;;;;1473924;40;20117;-61
2021/07/26 06:03:52;;;;;;;2.35;2.13;;;22.50;66.90;;;;;;1475604;40;20048;-61
2021/07/26 06:05:13;;;;;;;3.03;2.20;;;22.50;66.10;;;;;;1473849;40;20045;-61
2021/07/26 06:06:34;;;;;;;2.47;2.28;;;22.50;66.10;;;;;;1475128;40;20045;-61
2021/07/26 06:07:55;;;;;;;2.20;2.00;;;22.50;66.20;;;;;;1475046;40;20060;-61
2021/07/26 06:09:16;;;;;;;2.33;1.90;;;22.50;66.40;;;;;;1475182;40;20314;-61
2021/07/26 06:10:37;;;;;;;3.03;2.25;;;22.60;66.40;;;;;;1476008;40;20464;-61
2021/07/26 06:11:58;;;;;;;2.53;1.85;;;22.50;66.40;;;;;;1475138;40;20115;-61
2021/07/26 06:13:19;;;;;;;2.72;1.88;;;22.50;66.30;;;;;;1473675;40;20041;-61
2021/07/26 06:14:40;;;;;;;2.33;1.90;;;22.60;66.30;;;;;;1475337;40;20071;-61
2021/07/26 06:16:05;;;;;;;2.65;1.95;;;22.60;66.30;;;;;;1473942;40;20029;-61
2021/07/26 06:17:26;;;;;;;2.75;2.20;;;22.50;66.40;;;;;;1475408;40;20025;-61
2021/07/26 06:18:47;;;;;;;3.75;2.15;;;22.60;66.30;;;;;;1474517;40;20100;-61
2021/07/26 06:20:08;;;;;;;2.65;2.45;;;22.60;66.30;;;;;;1475142;40;20049;-59
2021/07/26 06:21:29;;;;;;;2.50;2.30;;;22.60;66.30;;;;;;1476106;40;20073;-61
2021/07/26 06:22:54;;;;;;;3.22;2.03;;;22.60;66.30;;;;;;1475060;40;20657;-61
2021/07/26 06:24:17;;;;;;;3.28;2.13;;;22.60;66.40;;;;;;1473890;40;20379;-61
2021/07/26 06:25:37;;;;;;;3.25;2.50;;;22.60;66.40;;;;;;1476098;40;20049;-61
2021/07/26 06:26:58;;;;;;;2.20;2.00;;;22.60;66.30;;;;;;1474417;40;20029;-61
2021/07/26 06:28:19;;;;;;;3.35;2.38;;;22.50;66.40;;;;;;1474828;40;20030;-59
2021/07/26 06:29:40;;;;;;;2.60;2.38;;;22.60;66.50;;;;;;1475224;40;20087;-62
2021/07/26 06:31:03;;;;;;;2.88;2.10;;;22.60;66.70;;;;;;1475415;40;20540;-61
2021/07/26 06:32:24;;;;;;;3.83;2.55;;;22.60;66.60;;;;;;1475171;40;20037;-61
2021/07/26 06:33:44;;;;;;;3.03;2.08;;;22.60;66.60;;;;;;1476018;40;20033;-62
2021/07/26 06:35:07;;;;;;;2.63;2.00;;;22.60;66.70;;;;;;1474634;40;20026;-61
2021/07/26 06:36:29;;;;;;;3.75;2.28;;;22.60;66.70;;;;;;1473399;40;20291;-61
2021/07/26 06:37:50;;;;;;;2.13;1.92;;;22.60;66.70;;;;;;1476121;40;20029;-61
2021/07/26 06:39:12;;;;;;;3.08;2.33;;;22.60;66.80;;;;;;1475366;40;20084;-61
2021/07/26 06:40:33;;;;;;;2.92;2.03;;;22.70;66.90;;;;;;1474273;40;20036;-61
2021/07/26 06:41:54;;;;;;;3.40;2.20;;;22.70;66.90;;;;;;1473947;40;20033;-61
2021/07/26 06:43:15;;;;;;;2.25;2.00;;;22.70;66.80;;;;;;1476534;40;20036;-61
2021/07/26 06:44:37;;;;;;;2.45;2.25;;;22.70;66.90;;;;;;1474772;40;20037;-61
2021/07/26 06:45:58;;;;;;;4.13;2.08;;;22.70;66.90;;;;;;1474245;40;20128;-61
2021/07/26 06:47:19;;;;;;;3.10;2.17;;;22.70;66.90;;;;;;1475718;40;20037;-61
2021/07/26 06:48:40;;;;;;;2.60;2.10;;;22.80;66.90;;;;;;1475736;40;20142;-61
2021/07/26 06:50:01;;;;;;;2.97;1.95;;;22.80;67.00;;;;;;1474980;40;20032;-62
2021/07/26 06:51:22;;;;;;;2.38;2.03;;;22.80;66.90;;;;;;1475684;40;20029;-61
2021/07/26 06:52:43;;;;;;;3.58;2.20;;;22.80;66.80;;;;;;1475137;40;20135;-61
2021/07/26 06:54:04;;;;;;;2.35;2.15;;;22.80;66.70;;;;;;1475221;40;20526;-61
2021/07/26 06:55:25;;;;;;;2.28;2.13;;;22.80;66.80;;;;;;1475108;40;20040;-61
2021/07/26 06:56:46;;;;;;;3.72;2.53;;;22.90;66.70;;;;;;1475106;40;20034;-61
2021/07/26 06:58:06;;;;;;;3.28;2.38;;;22.90;66.70;;;;;;1474938;40;20321;-61
2021/07/26 06:59:27;;;;;;;3.53;2.15;;;22.90;66.70;;;;;;1475819;40;20083;-61
2021/07/26 07:00:48;;;;;;;3.20;2.40;;;22.90;66.70;;;;;;1475704;40;20049;-61
2021/07/26 07:02:09;;;;;;;4.80;2.17;;;22.90;66.60;;;;;;1475134;40;20028;-61
2021/07/26 07:03:30;;;;;;;2.80;2.28;;;22.90;66.60;;;;;;1474600;40;20470;-61
2021/07/26 07:04:51;;;;;;;2.08;1.88;;;22.90;66.60;;;;;;1474708;40;20077;-62
2021/07/26 07:06:14;;;;;;;2.72;2.35;;;23.00;66.80;;;;;;1474787;40;20548;-61
2021/07/26 07:07:35;;;;;;;2.70;1.85;;;23.00;66.70;;;;;;1475483;40;20026;-61
2021/07/26 07:08:56;;;;;;;3.25;2.28;;;23.00;66.40;;;;;;1474963;40;20069;-61